Time;durP1;ratioP1;P1;durP2;ratioP2;P2;SDS_P1;SDS_P2;PMS_P1;PMS_P2;Temp;Humidity;BMP_temperature;BMP_pressure;BME280_temperature;BME280_humidity;BME280_pressure;Samples;Min_cycle;Max_cycle;Signal;HPM_P1;HPM_P2
2024/04/10 00:01:07;;;;;;;;;;;11.70;99.90;;;12.24;60.37;100815.00;5421346;26;19941;-82
2024/04/10 00:03:34;;;;;;;;;;;11.70;99.90;;;12.17;60.27;100816.88;5420830;26;19929;-82
2024/04/10 00:06:04;;;;;;;;;;;11.60;99.90;;;12.21;60.38;100815.44;5420952;26;19940;-82
2024/04/10 00:08:31;;;;;;;;;;;11.60;99.90;;;12.22;60.40;100826.94;5421712;26;19936;-82
2024/04/10 00:11:03;;;;;;;;;;;11.70;99.90;;;12.22;60.36;100825.09;5420964;26;19929;-82
2024/04/10 00:13:33;;;;;;;;;;;11.70;99.90;;;12.22;60.48;100827.75;5421619;26;19993;-82
2024/04/10 00:16:03;;;;;;;;;;;11.60;99.90;;;12.18;60.15;100826.53;5418736;26;19929;-82
2024/04/10 00:18:30;;;;;;;;;;;11.60;99.90;;;12.15;60.07;100829.66;5420889;26;19929;-82
2024/04/10 00:20:59;;;;;;;;;;;11.60;99.90;;;12.15;59.76;100831.50;5390299;26;19936;-82
2024/04/10 00:23:29;;;;;;;;;;;11.60;99.90;;;12.13;59.74;100837.06;5389760;26;19929;-82
2024/04/10 00:25:55;;;;;;;;;;;11.50;99.90;;;12.08;59.92;100837.69;5419171;26;19933;-82
2024/04/10 00:28:36;;;;;;;;;;;11.50;99.90;;;12.11;60.01;100847.16;5413238;26;19965;-82
2024/04/10 00:31:05;;;;;;;;;;;11.50;99.90;;;12.12;60.18;100838.09;5421533;26;19929;-82
2024/04/10 00:33:38;;;;;;;;;;;11.50;99.90;;;12.08;59.79;100847.56;5389615;26;19963;-82
2024/04/10 00:36:05;;;;;;;;;;;11.50;99.90;;;12.06;59.75;100855.81;5398745;26;19929;-82
2024/04/10 00:38:34;;;;;;;;;;;11.50;99.90;;;12.07;59.85;100861.97;5354384;26;20302;-82
2024/04/10 00:41:03;;;;;;;;;;;11.50;99.90;;;12.03;59.78;100861.56;5385548;26;19937;-82
2024/04/10 00:43:35;;;;;;;;;;;11.40;99.90;;;12.04;60.00;100873.06;5354148;26;19930;-82
2024/04/10 00:46:08;;;;;;;;;;;11.40;99.90;;;12.03;59.75;100876.78;5385618;26;19930;-82
2024/04/10 00:48:38;;;;;;;;;;;11.40;99.90;;;11.99;59.59;100880.91;5325472;26;19930;-82
2024/04/10 00:51:06;;;;;;;;;;;11.30;99.90;;;11.99;59.67;100881.72;5354547;26;19929;-82
2024/04/10 00:53:36;;;;;;;;;;;11.30;99.90;;;11.96;59.52;100884.84;5413989;26;19968;-82
2024/04/10 00:56:03;;;;;;;;;;;11.30;99.90;;;11.94;59.88;100883.38;5354103;26;20369;-82
2024/04/10 00:58:35;;;;;;;;;;;11.40;99.90;;;11.94;59.70;100897.56;5353747;26;20269;-82
2024/04/10 01:01:02;;;;;;;;;;;11.30;99.90;;;11.89;59.57;100900.06;5385757;26;20003;-82
2024/04/10 01:03:31;;;;;;;;;;;11.30;99.90;;;11.85;59.79;100898.81;5413186;26;19929;-82
2024/04/10 01:05:58;;;;;;;;;;;11.30;99.90;;;11.84;59.88;100905.22;5385328;26;19930;-82
2024/04/10 01:08:27;;;;;;;;;;;11.30;99.90;;;11.84;60.07;100905.22;5384984;26;20007;-82
2024/04/10 01:10:53;;;;;;;;;;;11.20;99.90;;;11.83;59.66;100903.56;5402611;26;19936;-82
2024/04/10 01:13:22;;;;;;;;;;;11.20;99.90;;;11.82;60.23;100917.97;5388443;26;19929;-82
2024/04/10 01:15:51;;;;;;;;;;;11.20;99.90;;;11.78;59.68;100912.19;5418815;26;19929;-82
2024/04/10 01:18:20;;;;;;;;;;;11.20;99.90;;;11.68;60.11;100914.47;5450949;26;19978;-82
2024/04/10 01:20:48;;;;;;;;;;;11.20;99.90;;;11.71;60.17;100914.06;5422367;26;20372;-82
2024/04/10 01:23:20;;;;;;;;;;;11.20;99.90;;;11.68;59.75;100909.13;5423930;26;19929;-82
2024/04/10 01:25:46;;;;;;;;;;;11.20;99.90;;;11.65;59.64;100908.69;5393093;26;19936;-82
2024/04/10 01:28:16;;;;;;;;;;;11.10;99.90;;;11.63;60.23;100908.91;5423080;26;19929;-82
2024/04/10 01:30:42;;;;;;;;;;;11.10;99.90;;;11.63;59.97;100914.25;5395212;26;20270;-82
2024/04/10 01:33:11;;;;;;;;;;;11.10;99.90;;;11.65;60.18;100917.53;5357693;26;19938;-82
2024/04/10 01:35:37;;;;;;;;;;;11.10;99.90;;;11.64;59.96;100920.41;5388043;26;19937;-82
2024/04/10 01:38:07;;;;;;;;;;;11.00;99.90;;;11.58;59.68;100933.56;5402358;26;19937;-82
2024/04/10 01:40:36;;;;;;;;;;;11.00;99.90;;;11.60;60.05;100933.34;5392629;26;19936;-82
2024/04/10 01:43:05;;;;;;;;;;;11.00;99.90;;;11.50;60.11;100938.31;5423569;26;19933;-82
2024/04/10 01:45:31;;;;;;;;;;;11.00;99.90;;;11.46;60.34;100939.72;5423331;26;19936;-82
2024/04/10 01:48:00;;;;;;;;;;;10.90;99.90;;;11.49;60.02;100942.81;5421063;26;19942;-82
2024/04/10 01:50:26;;;;;;;;;;;10.90;99.90;;;11.32;60.31;100942.41;5395437;26;19930;-82
2024/04/10 01:52:55;;;;;;;;;;;10.80;99.90;;;11.40;60.51;100951.25;5388575;26;19933;-82
2024/04/10 01:55:21;;;;;;;;;;;10.80;99.90;;;11.38;60.61;100955.97;5391423;26;19933;-82
2024/04/10 01:57:53;;;;;;;;;;;10.80;99.90;;;11.38;60.63;100951.44;5451039;26;19929;-82
2024/04/10 02:00:20;;;;;;;;;;;10.80;99.90;;;11.34;60.57;100963.56;5424130;26;20323;-82
2024/04/10 02:02:50;;;;;;;;;;;10.80;99.90;;;11.30;60.63;100963.16;5391860;26;19933;-82
2024/04/10 02:05:16;;;;;;;;;;;10.70;99.90;;;11.33;60.78;100967.28;5391521;26;19944;-82
2024/04/10 02:07:45;;;;;;;;;;;10.70;99.90;;;11.34;60.57;100968.91;5451019;26;20007;-82
2024/04/10 02:10:12;;;;;;;;;;;10.70;99.90;;;11.35;60.69;100968.69;5423866;26;19936;-82
2024/04/10 02:12:40;;;;;;;;;;;10.80;99.90;;;11.35;60.58;100967.88;5423352;26;19956;-82
2024/04/10 02:15:09;;;;;;;;;;;10.70;99.90;;;11.33;60.70;100978.78;5423641;26;19929;-82
2024/04/10 02:17:38;;;;;;;;;;;10.70;99.90;;;11.35;60.60;100975.88;5423859;26;19933;-82
2024/04/10 02:20:06;;;;;;;;;;;10.70;99.90;;;11.33;60.50;100983.28;5362540;26;19929;-82
2024/04/10 02:22:34;;;;;;;;;;;10.70;99.90;;;11.31;60.57;100988.81;5423184;26;19936;-82
2024/04/10 02:25:01;;;;;;;;;;;10.70;99.90;;;11.33;60.63;100992.13;5421860;26;20368;-82
2024/04/10 02:27:30;;;;;;;;;;;10.70;99.90;;;11.33;60.57;100992.13;5390798;26;19974;-82
2024/04/10 02:29:56;;;;;;;;;;;10.70;99.90;;;11.32;60.38;100992.31;5422745;26;19933;-82
2024/04/10 02:32:27;;;;;;;;;;;10.70;99.90;;;11.32;60.43;100998.50;5423130;26;19979;-82
2024/04/10 02:34:53;;;;;;;;;;;10.70;99.90;;;11.27;60.70;101000.94;5423659;26;19929;-82
2024/04/10 02:37:24;;;;;;;;;;;10.70;99.90;;;11.29;60.35;101006.09;5423240;26;20376;-82
2024/04/10 02:39:51;;;;;;;;;;;10.70;99.90;;;11.25;60.42;101005.66;5391522;26;19935;-82
2024/04/10 02:42:20;;;;;;;;;;;10.60;99.90;;;11.23;60.69;101013.06;5421932;26;20399;-82
2024/04/10 02:44:51;;;;;;;;;;;10.60;99.90;;;11.22;60.48;101007.91;5391907;26;19929;-82
2024/04/10 02:47:21;;;;;;;;;;;10.60;99.90;;;11.17;60.93;101008.50;5391436;26;19929;-82
2024/04/10 02:49:50;;;;;;;;;;;10.60;99.90;;;11.14;60.94;101011.59;5390360;26;20463;-82
2024/04/10 02:52:19;;;;;;;;;;;10.50;99.90;;;11.13;60.98;101012.63;5421177;26;19936;-82
2024/04/10 02:54:45;;;;;;;;;;;10.50;99.90;;;11.11;60.96;101022.66;5420167;26;19940;-82
2024/04/10 02:57:14;;;;;;;;;;;10.50;99.90;;;11.12;60.73;101018.97;5446127;26;19964;-82
2024/04/10 02:59:40;;;;;;;;;;;10.50;99.90;;;11.05;61.19;101028.81;5457485;26;19929;-82
2024/04/10 03:02:09;;;;;;;;;;;10.50;99.90;;;11.08;60.73;101033.75;5517227;26;19961;-82
2024/04/10 03:04:35;;;;;;;;;;;10.50;99.90;;;11.06;61.15;101038.47;5516546;26;19964;-82
2024/04/10 03:07:09;;;;;;;;;;;10.50;99.90;;;11.05;61.07;101039.50;5457347;26;19997;-82
2024/04/10 03:09:36;;;;;;;;;;;10.40;99.90;;;11.03;61.29;101046.88;5448558;26;19935;-82
2024/04/10 03:12:05;;;;;;;;;;;10.40;99.90;;;10.97;61.34;101050.31;5517718;26;19928;-82
2024/04/10 03:14:32;;;;;;;;;;;10.40;99.90;;;10.75;61.92;101052.31;5486542;26;19944;-82
2024/04/10 03:17:01;;;;;;;;;;;10.30;99.90;;;10.83;61.78;101055.63;5458384;26;19997;-82
2024/04/10 03:19:28;;;;;;;;;;;10.30;99.90;;;10.87;61.75;101061.38;5456310;26;19935;-82
2024/04/10 03:21:57;;;;;;;;;;;10.30;99.90;;;10.91;61.77;101061.81;5456798;26;19970;-82
2024/04/10 03:24:26;;;;;;;;;;;10.30;99.90;;;10.86;61.71;101062.41;5458071;26;19950;-82
2024/04/10 03:26:55;;;;;;;;;;;10.30;99.90;;;10.90;61.75;101074.34;5454203;26;19934;-82
2024/04/10 03:29:21;;;;;;;;;;;10.30;99.90;;;10.90;61.70;101079.66;5458730;26;19940;-82
2024/04/10 03:31:50;;;;;;;;;;;10.30;99.90;;;10.91;61.70;101077.81;5458224;26;20378;-82
2024/04/10 03:34:16;;;;;;;;;;;10.30;99.90;;;10.90;61.76;101078.84;5426773;26;19929;-82
2024/04/10 03:36:45;;;;;;;;;;;10.30;99.90;;;10.90;61.85;101090.34;5456680;26;19935;-82
2024/04/10 03:39:11;;;;;;;;;;;10.30;99.90;;;10.86;61.89;101091.75;5484633;26;19928;-82
2024/04/10 03:41:43;;;;;;;;;;;10.30;99.90;;;10.82;61.96;101099.31;5458663;26;19936;-82
2024/04/10 03:44:13;;;;;;;;;;;10.20;99.90;;;10.81;62.17;101104.88;5457976;26;19936;-82
2024/04/10 03:46:45;;;;;;;;;;;10.20;99.90;;;10.84;62.30;101101.81;5487463;26;19941;-82
2024/04/10 03:49:12;;;;;;;;;;;10.20;99.90;;;10.84;62.40;101099.16;5458088;26;19936;-82
2024/04/10 03:51:49;;;;;;;;;;;10.30;99.90;;;10.85;62.49;101113.31;5456665;26;19954;-82
2024/04/10 03:54:16;;;;;;;;;;;10.30;99.90;;;10.89;62.46;101125.25;5423555;26;19936;-82
2024/04/10 03:56:47;;;;;;;;;;;10.40;99.90;;;10.88;62.19;101123.56;5481999;26;20295;-82
2024/04/10 04:02:38;;;;;;;;;;;10.40;99.90;;;10.86;62.23;101136.28;5618064;25;19947;-82
2024/04/10 04:05:05;;;;;;;;;;;10.30;99.90;;;10.86;62.39;101130.97;5555911;25;20362;-83
2024/04/10 04:07:34;;;;;;;;;;;10.30;99.90;;;10.88;62.58;101142.25;5511378;26;19928;-83
2024/04/10 04:10:00;;;;;;;;;;;10.30;99.90;;;10.92;62.57;101152.34;5511669;26;20395;-85
2024/04/10 04:12:29;;;;;;;;;;;10.40;99.90;;;10.92;62.62;101167.53;5510970;26;19948;-83
2024/04/10 04:14:58;;;;;;;;;;;10.30;99.90;;;10.91;62.42;101166.72;5511259;25;20001;-84
2024/04/10 04:17:27;;;;;;;;;;;10.40;99.90;;;10.82;62.52;101163.34;5511299;26;19977;-84
2024/04/10 04:19:56;;;;;;;;;;;10.30;99.90;;;10.82;62.95;101168.69;5508289;25;19933;-85
2024/04/10 04:22:25;;;;;;;;;;;10.30;99.90;;;10.85;63.05;101169.34;5548867;25;19927;-84
2024/04/10 04:24:52;;;;;;;;;;;10.30;99.90;;;10.84;62.83;101179.19;5548060;25;19935;-84
2024/04/10 04:27:25;;;;;;;;;;;10.30;99.90;;;10.83;63.16;101185.53;5545744;25;20390;-84
2024/04/10 04:29:51;;;;;;;;;;;10.30;99.90;;;10.80;63.25;101189.44;5486371;25;20386;-83
2024/04/10 04:32:21;;;;;;;;;;;10.30;99.90;;;10.83;63.20;101194.38;5547298;25;19927;-84
2024/04/10 04:34:48;;;;;;;;;;;10.30;99.90;;;10.79;63.22;101189.63;5547942;25;19927;-84
2024/04/10 04:37:21;;;;;;;;;;;10.30;99.90;;;10.77;63.13;101192.47;5482605;26;19939;-83
2024/04/10 04:39:53;;;;;;;;;;;10.20;99.90;;;10.80;63.01;101201.94;5512195;25;19928;-85
2024/04/10 04:42:22;;;;;;;;;;;10.20;99.90;;;10.80;63.04;101208.09;5510783;26;19932;-85
2024/04/10 04:44:50;;;;;;;;;;;10.20;99.90;;;10.80;62.84;101217.97;5509115;25;20389;-85
2024/04/10 04:47:20;;;;;;;;;;;10.30;99.90;;;10.77;62.75;101221.81;5511763;26;19935;-84
2024/04/10 04:49:46;;;;;;;;;;;10.30;99.90;;;10.77;62.99;101235.16;5511732;26;20378;-85
2024/04/10 04:52:15;;;;;;;;;;;10.20;99.90;;;10.78;63.01;101228.84;5511772;25;19927;-85
2024/04/10 04:54:44;;;;;;;;;;;10.20;99.90;;;10.77;62.79;101226.34;5512225;25;19928;-85
2024/04/10 04:57:13;;;;;;;;;;;10.20;99.90;;;10.77;62.71;101237.00;5511508;25;19991;-85
2024/04/10 04:59:48;;;;;;;;;;;10.20;99.90;;;10.75;62.87;101245.22;5511973;25;19936;-85
2024/04/10 05:02:17;;;;;;;;;;;10.20;99.90;;;10.72;62.76;101258.09;5513035;26;19928;-85
2024/04/10 05:04:57;;;;;;;;;;;10.20;99.90;;;10.69;62.69;101248.66;5510500;26;20004;-85
2024/04/10 05:07:27;;;;;;;;;;;10.10;99.90;;;10.68;62.95;101251.50;5453255;26;19928;-85
2024/04/10 05:09:58;;;;;;;;;;;10.10;99.90;;;10.66;62.93;101259.72;5510025;26;19935;-81
2024/04/10 05:12:25;;;;;;;;;;;10.10;99.90;;;10.66;63.01;101270.38;5499978;26;19928;-82
2024/04/10 05:14:55;;;;;;;;;;;10.10;99.90;;;10.67;63.01;101272.03;5493721;26;19956;-84
2024/04/10 05:17:22;;;;;;;;;;;9.90;99.90;;;10.67;63.00;101271.19;5493991;26;19935;-83
2024/04/10 05:19:57;;;;;;;;;;;10.10;99.90;;;10.69;63.62;101280.69;5498523;26;19928;-84
2024/04/10 05:22:24;;;;;;;;;;;10.10;99.90;;;10.70;63.29;101287.66;5502162;26;20000;-84
2024/04/10 05:24:53;;;;;;;;;;;10.20;99.90;;;10.72;63.44;101296.28;5468355;26;19996;-82
2024/04/10 05:27:26;;;;;;;;;;;10.20;99.90;;;10.74;63.73;101306.78;5499154;26;19960;-83
2024/04/10 05:29:59;;;;;;;;;;;10.20;99.90;;;10.77;63.78;101298.38;5501054;26;20394;-83
2024/04/10 05:32:29;;;;;;;;;;;10.20;99.90;;;10.76;63.96;101310.91;5500272;26;19928;-82
2024/04/10 05:34:55;;;;;;;;;;;10.20;99.90;;;10.82;63.88;101317.31;5498270;26;19928;-82
2024/04/10 05:37:25;;;;;;;;;;;10.30;99.90;;;10.84;64.35;101325.97;5502919;26;19927;-82
2024/04/10 05:40:05;;;;;;;;;;;10.30;99.90;;;10.85;64.72;101324.94;5497419;26;19928;-82
2024/04/10 05:42:38;;;;;;;;;;;10.40;99.90;;;10.84;64.23;101328.63;5464438;26;19935;-82
2024/04/10 05:45:07;;;;;;;;;;;10.40;99.90;;;10.83;64.19;101330.47;5492768;26;19974;-83
2024/04/10 05:47:36;;;;;;;;;;;10.30;99.90;;;10.86;64.47;101339.09;5495044;26;19934;-84
2024/04/10 05:50:03;;;;;;;;;;;10.40;99.90;;;10.89;64.54;101349.41;5497554;26;19972;-84
2024/04/10 05:52:33;;;;;;;;;;;10.40;99.90;;;10.85;64.49;101350.81;5500298;26;19935;-84
2024/04/10 05:54:59;;;;;;;;;;;10.40;99.90;;;10.86;64.83;101360.44;5497989;26;19996;-83
2024/04/10 05:57:28;;;;;;;;;;;10.40;99.90;;;10.89;64.64;101368.91;5514185;26;19933;-83
2024/04/10 05:59:58;;;;;;;;;;;10.40;99.90;;;10.94;65.07;101365.66;5530328;26;19928;-84
2024/04/10 06:02:29;;;;;;;;;;;10.40;99.90;;;10.96;64.65;101368.97;5497369;26;19935;-84
2024/04/10 06:04:56;;;;;;;;;;;10.50;99.90;;;10.91;64.54;101374.88;5497830;26;20000;-84
2024/04/10 06:07:26;;;;;;;;;;;10.40;99.90;;;10.92;64.72;101379.19;5496273;26;20263;-84
2024/04/10 06:09:53;;;;;;;;;;;10.40;99.90;;;10.96;64.97;101387.66;5514781;25;19927;-84
2024/04/10 06:12:22;;;;;;;;;;;10.50;99.90;;;10.97;64.90;101390.13;5442834;26;19936;-83
2024/04/10 06:14:52;;;;;;;;;;;10.50;99.90;;;10.96;64.51;101387.66;5499539;26;19987;-83
2024/04/10 06:17:26;;;;;;;;;;;10.50;99.90;;;11.01;64.71;101394.06;5527962;26;19932;-85
2024/04/10 06:19:54;;;;;;;;;;;10.60;99.90;;;11.05;64.48;101394.50;5523952;26;19935;-84
2024/04/10 06:22:24;;;;;;;;;;;10.60;99.90;;;11.11;64.38;101399.06;5534873;26;19935;-84
2024/04/10 06:24:51;;;;;;;;;;;10.70;99.90;;;11.13;64.84;101399.72;5536481;26;19927;-84
2024/04/10 06:27:20;;;;;;;;;;;10.70;99.90;;;11.19;64.71;101406.13;5532922;26;20335;-82
2024/04/10 06:29:47;;;;;;;;;;;10.80;99.90;;;11.23;64.72;101405.56;5491645;26;19927;-82
2024/04/10 06:32:16;;;;;;;;;;;10.90;99.90;;;11.27;64.80;101406.84;5493542;26;19932;-83
2024/04/10 06:34:45;;;;;;;;;;;11.00;99.90;;;11.35;64.99;101411.19;5496038;26;19944;-82
2024/04/10 06:37:15;;;;;;;;;;;11.00;99.90;;;11.35;64.66;101412.03;5495407;26;19928;-82
2024/04/10 06:39:41;;;;;;;;;;;11.00;99.90;;;11.37;64.56;101413.66;5497862;26;19928;-82
2024/04/10 06:42:10;;;;;;;;;;;11.00;99.90;;;11.37;64.72;101427.88;5464938;26;19996;-82
2024/04/10 06:44:39;;;;;;;;;;;11.10;99.90;;;11.37;64.82;101430.53;5503040;26;19940;-82
2024/04/10 06:47:06;;;;;;;;;;;11.10;99.90;;;11.36;64.48;101428.88;5496630;26;20279;-83
2024/04/10 06:49:35;;;;;;;;;;;11.10;99.90;;;11.26;64.50;101442.53;5495690;26;19960;-82
2024/04/10 06:52:06;;;;;;;;;;;11.00;99.90;;;11.32;64.60;101435.59;5495449;26;19928;-82
2024/04/10 06:54:33;;;;;;;;;;;11.00;99.90;;;11.34;64.31;101437.06;5497097;26;19934;-83
2024/04/10 06:57:02;;;;;;;;;;;11.10;99.90;;;11.33;64.55;101448.78;5464691;26;19960;-82
2024/04/10 06:59:28;;;;;;;;;;;11.10;99.90;;;11.44;65.07;101444.75;5465816;26;19928;-83
2024/04/10 07:01:57;;;;;;;;;;;11.20;99.90;;;11.52;64.60;101441.13;5496719;26;19928;-82
2024/04/10 07:04:25;;;;;;;;;;;11.30;99.90;;;11.61;64.77;101455.97;5496725;26;19928;-82
2024/04/10 07:06:54;;;;;;;;;;;11.40;99.90;;;11.56;64.02;101461.91;5496070;26;19928;-82
2024/04/10 07:09:23;;;;;;;;;;;11.40;99.90;;;11.56;64.54;101463.75;5495318;26;19935;-82
2024/04/10 07:11:52;;;;;;;;;;;11.40;99.90;;;11.60;64.54;101470.38;5496652;26;19935;-82
2024/04/10 07:14:18;;;;;;;;;;;11.40;99.90;;;11.68;64.70;101472.09;5496538;26;19928;-82
2024/04/10 07:16:47;;;;;;;;;;;11.50;99.90;;;11.74;64.62;101477.47;5494679;26;19928;-83
2024/04/10 07:19:13;;;;;;;;;;;11.50;99.90;;;11.75;64.65;101483.63;5496904;26;19928;-83
2024/04/10 07:21:44;;;;;;;;;;;11.60;99.90;;;11.82;64.09;101469.34;5527441;26;19935;-82
2024/04/10 07:24:13;;;;;;;;;;;11.70;99.90;;;11.86;64.24;101475.16;5498786;26;19986;-82
2024/04/10 07:26:47;;;;;;;;;;;11.70;99.90;;;11.87;64.10;101481.31;5404383;26;19935;-82
2024/04/10 07:29:13;;;;;;;;;;;11.80;99.90;;;11.82;64.46;101485.38;5535267;25;19943;-83
2024/04/10 07:31:42;;;;;;;;;;;11.70;99.90;;;11.93;64.62;101491.22;5532701;26;19927;-83
2024/04/10 07:34:08;;;;;;;;;;;11.80;99.90;;;11.99;63.74;101490.44;5533010;26;19928;-83
2024/04/10 07:36:38;;;;;;;;;;;11.90;99.90;;;11.94;63.49;101487.50;5534936;25;19934;-83
2024/04/10 07:39:05;;;;;;;;;;;11.80;99.90;;;11.89;63.41;101492.63;5533787;26;20014;-83
2024/04/10 07:41:34;;;;;;;;;;;11.80;99.90;;;11.87;64.01;101503.53;5535235;26;20271;-82
2024/04/10 07:44:03;;;;;;;;;;;11.70;99.90;;;11.93;64.09;101509.94;5524683;26;20375;-83
2024/04/10 07:46:32;;;;;;;;;;;11.80;99.90;;;12.01;64.25;101505.28;5536031;25;19927;-83
2024/04/10 07:48:58;;;;;;;;;;;11.90;99.90;;;12.01;63.78;101502.59;5533294;26;20286;-83
2024/04/10 07:51:29;;;;;;;;;;;11.90;99.90;;;12.10;63.41;101508.59;5535759;25;19928;-83
2024/04/10 07:53:55;;;;;;;;;;;12.00;99.90;;;12.14;63.97;101515.22;5534798;25;19927;-82
2024/04/10 07:56:26;;;;;;;;;;;12.00;99.90;;;12.13;63.56;101521.59;5533296;26;20347;-83
2024/04/10 07:58:52;;;;;;;;;;;12.00;99.90;;;12.10;63.40;101528.16;5534910;26;19927;-83
2024/04/10 08:01:24;;;;;;;;;;;12.00;99.90;;;12.19;63.99;101538.69;5501792;26;19935;-82
2024/04/10 08:03:51;;;;;;;;;;;12.10;99.90;;;12.26;63.74;101534.22;5535368;26;19939;-82
2024/04/10 08:06:21;;;;;;;;;;;12.10;99.90;;;12.23;64.57;101546.13;5534872;26;19933;-83
2024/04/10 08:08:48;;;;;;;;;;;12.20;99.90;;;12.32;64.41;101546.81;5444458;26;19927;-83
2024/04/10 08:11:18;;;;;;;;;;;12.20;99.90;;;12.26;64.07;101543.09;5529208;25;19934;-83
2024/04/10 08:13:45;;;;;;;;;;;12.20;99.90;;;12.15;63.34;101548.97;5465785;26;19977;-83
2024/04/10 08:16:15;;;;;;;;;;;12.10;99.90;;;12.18;63.27;101545.06;5497241;26;19928;-83
2024/04/10 08:18:45;;;;;;;;;;;12.10;99.90;;;12.14;63.67;101554.50;5497364;26;19956;-83
2024/04/10 08:21:16;;;;;;;;;;;12.10;99.90;;;12.14;63.36;101558.00;5496175;26;19935;-83
2024/04/10 08:23:44;;;;;;;;;;;12.10;99.90;;;12.23;64.12;101561.34;5496226;26;19929;-83
2024/04/10 08:26:15;;;;;;;;;;;12.10;99.90;;;12.26;62.88;101569.81;5495427;26;20383;-83
2024/04/10 08:28:45;;;;;;;;;;;12.20;99.90;;;12.25;62.93;101570.00;5495657;26;19934;-83
2024/04/10 08:31:16;;;;;;;;;;;12.20;99.90;;;12.22;62.46;101576.59;5496224;26;20380;-83
2024/04/10 08:33:45;;;;;;;;;;;12.20;99.90;;;12.25;62.85;101570.84;5497291;26;19928;-83
2024/04/10 08:36:17;;;;;;;;;;;12.30;99.90;;;12.30;63.00;101572.94;5497551;26;19935;-83
2024/04/10 08:38:44;;;;;;;;;;;12.30;99.90;;;12.41;63.19;101569.72;5497970;26;19931;-83
2024/04/10 08:41:15;;;;;;;;;;;12.40;99.90;;;12.45;63.81;101562.97;5531961;26;20270;-82
2024/04/10 08:43:43;;;;;;;;;;;12.50;99.90;;;12.57;63.62;101574.75;5532196;26;19927;-82
2024/04/10 08:46:13;;;;;;;;;;;12.60;99.90;;;12.61;63.12;101573.34;5532351;26;20402;-83
2024/04/10 08:48:40;;;;;;;;;;;12.70;99.90;;;12.60;61.95;101574.38;5536520;26;19932;-82
2024/04/10 08:51:14;;;;;;;;;;;12.70;99.90;;;12.71;62.90;101575.66;5536200;26;19953;-83
2024/04/10 08:53:42;;;;;;;;;;;12.80;99.90;;;12.79;62.76;101580.03;5537908;25;19972;-83
2024/04/10 08:56:10;;;;;;;;;;;12.90;99.90;;;12.81;62.52;101581.47;5537941;25;20282;-83
2024/04/10 08:58:37;;;;;;;;;;;12.90;99.90;;;12.87;62.76;101580.66;5537668;25;19928;-83
2024/04/10 09:01:06;;;;;;;;;;;13.00;99.90;;;12.89;60.84;101583.16;5537693;25;19935;-83
2024/04/10 09:03:34;;;;;;;;;;;13.00;99.90;;;12.94;61.58;101575.38;5505998;26;20388;-82
2024/04/10 09:06:07;;;;;;;;;;;13.00;99.90;;;12.92;60.63;101587.28;5536015;26;20278;-83
2024/04/10 09:08:37;;;;;;;;;;;13.10;99.90;;;13.08;61.40;101582.44;5535008;26;19927;-83
2024/04/10 09:11:07;;;;;;;;;;;13.20;99.90;;;13.19;62.00;101583.69;5535719;26;19943;-84
2024/04/10 09:13:34;;;;;;;;;;;13.30;99.90;;;13.28;61.44;101589.75;5533572;25;19935;-83
2024/04/10 09:16:03;;;;;;;;;;;13.50;99.90;;;13.26;60.65;101592.59;5534225;25;19940;-83
2024/04/10 09:18:29;;;;;;;;;;;13.40;99.90;;;13.21;60.71;101596.88;5536545;26;19934;-83
2024/04/10 09:21:10;;;;;;;;;;;13.30;99.90;;;13.28;60.80;101600.47;5535260;26;19932;-83
2024/04/10 09:23:41;;;;;;;;;;;13.40;99.90;;;13.29;58.79;101610.97;5536373;25;19939;-83
2024/04/10 09:26:09;;;;;;;;;;;13.50;99.90;;;13.27;58.99;101607.63;5503420;26;19973;-85
2024/04/10 09:28:36;;;;;;;;;;;13.40;99.90;;;13.28;60.58;101614.69;5529579;26;19927;-84
2024/04/10 09:31:06;;;;;;;;;;;13.50;99.90;;;13.28;58.61;101609.31;5534284;25;19939;-84
2024/04/10 09:33:34;;;;;;;;;;;13.50;99.90;;;13.26;58.68;101611.34;5532439;26;20271;-84
2024/04/10 09:36:05;;;;;;;;;;;13.50;99.90;;;13.36;58.62;101601.06;5533918;26;20435;-84
2024/04/10 09:38:35;;;;;;;;;;;13.50;99.90;;;13.48;59.67;101608.56;5533694;26;20355;-84
2024/04/10 09:41:07;;;;;;;;;;;13.70;99.90;;;13.57;60.45;101607.34;5499816;26;19936;-84
2024/04/10 09:43:35;;;;;;;;;;;13.80;99.90;;;13.36;57.79;101611.78;5496576;26;19928;-84
2024/04/10 09:46:05;;;;;;;;;;;13.70;99.90;;;13.38;58.26;101611.63;5497465;26;20459;-84
2024/04/10 09:48:32;;;;;;;;;;;13.60;99.90;;;13.35;59.44;101612.81;5496513;26;19932;-84
2024/04/10 09:51:04;;;;;;;;;;;13.50;99.90;;;13.36;59.18;101611.78;5497244;26;19996;-84
2024/04/10 09:53:33;;;;;;;;;;;13.60;99.90;;;13.29;58.75;101620.84;5436941;26;19939;-84
2024/04/10 09:56:09;;;;;;;;;;;13.40;99.90;;;13.24;59.25;101620.63;5499521;26;19928;-84
2024/04/10 09:58:36;;;;;;;;;;;13.40;99.90;;;13.19;58.25;101631.09;5496654;26;19935;-84
2024/04/10 10:01:06;;;;;;;;;;;13.30;99.90;;;13.20;59.12;101625.53;5465712;26;20363;-84
2024/04/10 10:03:32;;;;;;;;;;;13.30;99.90;;;13.20;59.33;101638.91;5495230;26;19934;-84
2024/04/10 10:06:06;;;;;;;;;;;13.20;99.90;;;13.14;59.87;101634.38;5500832;26;19932;-84
2024/04/10 10:08:33;;;;;;;;;;;13.10;99.90;;;13.09;58.09;101644.84;5533461;26;19931;-84
2024/04/10 10:11:07;;;;;;;;;;;13.10;99.90;;;12.87;59.40;101652.97;5533960;25;20344;-84
2024/04/10 10:13:41;;;;;;;;;;;12.80;99.90;;;12.88;59.93;101657.31;5519313;26;19928;-84
2024/04/10 10:16:11;;;;;;;;;;;12.80;99.90;;;12.85;58.64;101655.03;5494069;26;19935;-84
2024/04/10 10:18:40;;;;;;;;;;;12.80;99.90;;;12.86;58.92;101650.50;5493923;26;19932;-84
2024/04/10 10:21:10;;;;;;;;;;;12.80;99.90;;;12.96;59.35;101650.13;5494799;26;19960;-84
2024/04/10 10:23:38;;;;;;;;;;;12.80;99.90;;;13.04;57.87;101644.63;5512963;26;19928;-84
2024/04/10 10:26:10;;;;;;;;;;;13.00;99.90;;;13.14;57.05;101640.53;5530275;25;19934;-84
2024/04/10 10:28:37;;;;;;;;;;;13.10;99.90;;;13.24;59.07;101647.41;5528935;26;19939;-84
2024/04/10 10:31:11;;;;;;;;;;;13.20;99.90;;;13.37;59.31;101642.94;5525607;26;19927;-84
2024/04/10 10:33:38;;;;;;;;;;;13.40;99.90;;;13.33;56.84;101655.09;5530828;25;19935;-84
2024/04/10 10:36:08;;;;;;;;;;;13.40;99.90;;;13.36;56.41;101653.84;5530650;25;19927;-84
2024/04/10 10:38:37;;;;;;;;;;;13.50;99.90;;;13.28;55.17;101659.41;5528688;26;19927;-84
2024/04/10 10:41:14;;;;;;;;;;;13.40;99.90;;;13.18;55.47;101659.72;5527647;25;20379;-84
2024/04/10 10:43:40;;;;;;;;;;;13.30;99.90;;;13.22;55.85;101657.50;5491843;26;19928;-84
2024/04/10 10:46:10;;;;;;;;;;;13.30;99.90;;;13.34;55.97;101643.34;5491815;26;20290;-85
2024/04/10 10:48:36;;;;;;;;;;;13.50;99.90;;;13.47;55.41;101639.03;5492660;26;20268;-84
2024/04/10 10:51:06;;;;;;;;;;;13.60;99.90;;;13.48;55.86;101643.38;5492691;26;19928;-84
2024/04/10 10:53:32;;;;;;;;;;;13.60;99.90;;;13.45;55.51;101649.16;5493712;26;19935;-85
2024/04/10 10:56:01;;;;;;;;;;;13.60;99.90;;;13.46;55.85;101656.16;5493294;26;20351;-84
2024/04/10 10:58:30;;;;;;;;;;;13.60;99.90;;;13.40;54.44;101650.56;5491871;26;19934;-85
2024/04/10 11:00:59;;;;;;;;;;;13.60;99.90;;;13.34;54.62;101658.59;5491583;26;19928;-84
2024/04/10 11:03:26;;;;;;;;;;;13.50;99.90;;;13.39;55.81;101665.00;5461789;26;19935;-84
2024/04/10 11:05:55;;;;;;;;;;;13.50;99.90;;;13.45;56.94;101662.53;5493625;26;19940;-85
2024/04/10 11:08:22;;;;;;;;;;;13.50;99.90;;;13.36;55.76;101665.38;5493381;26;19929;-85
2024/04/10 11:10:53;;;;;;;;;;;13.50;99.90;;;13.30;55.10;101655.47;5490274;26;20436;-84
2024/04/10 11:13:19;;;;;;;;;;;13.40;99.90;;;13.33;55.52;101670.34;5491563;26;19928;-84
2024/04/10 11:15:52;;;;;;;;;;;13.40;99.90;;;13.28;55.96;101668.25;5491299;26;20393;-85
2024/04/10 11:18:19;;;;;;;;;;;13.30;99.90;;;13.29;53.93;101663.72;5494774;26;19996;-84
2024/04/10 11:20:50;;;;;;;;;;;13.30;99.90;;;13.27;55.54;101666.59;5460700;26;19928;-85